Bainbridge, Georgia
Current Conditions -  °F | °C
As of 12:35 PM on Thursday 23 Oct 2014 (Local Time) from KBGE Reporting Station
Clear Clear  
Wind Chill: 23°   Ceiling: Unl
Heat Index: 23°   Visibility: 10mi
Dew Point:   Wind: 6mph
Humidity: 41%   Direction: 40°NE
Pressure: 30.1"   Gusts: NA
Location:  30.91°N, 84.57°W
Report Text: KBGE 231635Z AUTO 04005KT 10SM CLR 23/09 A3010 RMK AO2
Loading
Personal Weather Stations






























Interactive Weather Map
Tropical Storm Tracking
New forecast layout! Learn more

10-Day Weather Forecast

Advertisements
Track Severe Weather on mobile